Shaw, Missouri
Current Conditions -  °F | °C
As of 6:54 AM on Thursday 18 Dec 2014 (Local Time) from KCOU Reporting Station
Haze Haze  
Wind Chill: -6°   Ceiling: 6000
Heat Index: -2°   Visibility: 4mi
Dew Point: -3°   Wind: 6mph
Humidity: 96%   Direction: 90°E
Pressure: 30.24"   Gusts: NA
Location:  39.0235°N, 92.2896°W
Report Text: KCOU 181254Z 09005KT 4SM BR BKN060 OVC075 M02/M03 A3024 RMK AO2 SNE39 SLP249 P0001 T10221028
Loading
Personal Weather Stations






























Interactive Weather Map New forecast layout! Learn more

10-Day Weather Forecast

Advertisements
Track Severe Weather on mobile